sensor_id;sensor_type;location;lat;lon;timestamp;P1;durP1;ratioP1;P2;durP2;ratioP2
3095;SDS011;1558;42.700;23.360;2022-09-13T00:00:51;6.43;;;5.20;;
3095;SDS011;1558;42.700;23.360;2022-09-13T00:03:20;6.23;;;5.63;;
3095;SDS011;1558;42.700;23.360;2022-09-13T00:05:48;5.70;;;5.20;;
3095;SDS011;1558;42.700;23.360;2022-09-13T00:08:16;5.90;;;5.33;;
3095;SDS011;1558;42.700;23.360;2022-09-13T00:10:45;6.00;;;5.50;;
3095;SDS011;1558;42.700;23.360;2022-09-13T00:13:13;9.53;;;5.73;;
3095;SDS011;1558;42.700;23.360;2022-09-13T00:15:42;5.57;;;5.00;;
3095;SDS011;1558;42.700;23.360;2022-09-13T00:18:13;5.83;;;5.33;;
3095;SDS011;1558;42.700;23.360;2022-09-13T00:20:41;6.40;;;5.10;;
3095;SDS011;1558;42.700;23.360;2022-09-13T00:23:09;5.63;;;5.13;;
3095;SDS011;1558;42.700;23.360;2022-09-13T00:25:37;5.80;;;5.20;;
3095;SDS011;1558;42.700;23.360;2022-09-13T00:28:06;5.67;;;5.07;;
3095;SDS011;1558;42.700;23.360;2022-09-13T00:30:34;5.80;;;4.73;;
3095;SDS011;1558;42.700;23.360;2022-09-13T00:33:02;5.30;;;4.80;;
3095;SDS011;1558;42.700;23.360;2022-09-13T00:35:31;5.53;;;5.03;;
3095;SDS011;1558;42.700;23.360;2022-09-13T00:38:00;7.40;;;5.60;;
3095;SDS011;1558;42.700;23.360;2022-09-13T00:40:28;5.57;;;4.70;;
3095;SDS011;1558;42.700;23.360;2022-09-13T00:42:56;5.73;;;4.97;;
3095;SDS011;1558;42.700;23.360;2022-09-13T00:45:24;5.37;;;4.97;;
3095;SDS011;1558;42.700;23.360;2022-09-13T00:47:54;5.20;;;4.80;;
3095;SDS011;1558;42.700;23.360;2022-09-13T00:50:26;5.00;;;4.60;;
3095;SDS011;1558;42.700;23.360;2022-09-13T00:53:01;4.67;;;4.33;;
3095;SDS011;1558;42.700;23.360;2022-09-13T00:55:36;5.83;;;4.80;;
3095;SDS011;1558;42.700;23.360;2022-09-13T00:58:09;5.60;;;5.10;;
3095;SDS011;1558;42.700;23.360;2022-09-13T01:00:43;5.23;;;4.63;;
3095;SDS011;1558;42.700;23.360;2022-09-13T01:03:12;5.20;;;4.70;;
3095;SDS011;1558;42.700;23.360;2022-09-13T01:05:43;6.40;;;5.00;;
3095;SDS011;1558;42.700;23.360;2022-09-13T01:08:15;4.83;;;4.43;;
3095;SDS011;1558;42.700;23.360;2022-09-13T01:13:17;4.83;;;4.43;;
3095;SDS011;1558;42.700;23.360;2022-09-13T01:15:48;5.03;;;4.60;;
3095;SDS011;1558;42.700;23.360;2022-09-13T01:18:16;5.23;;;4.80;;
3095;SDS011;1558;42.700;23.360;2022-09-13T01:20:47;5.23;;;4.60;;
3095;SDS011;1558;42.700;23.360;2022-09-13T01:23:52;7.00;;;4.77;;
3095;SDS011;1558;42.700;23.360;2022-09-13T01:32:36;5.97;;;4.70;;
3095;SDS011;1558;42.700;23.360;2022-09-13T01:35:26;5.20;;;4.70;;
3095;SDS011;1558;42.700;23.360;2022-09-13T01:38:08;5.73;;;5.23;;
3095;SDS011;1558;42.700;23.360;2022-09-13T01:40:54;5.43;;;4.93;;
3095;SDS011;1558;42.700;23.360;2022-09-13T01:43:35;5.50;;;5.00;;
3095;SDS011;1558;42.700;23.360;2022-09-13T01:46:11;5.67;;;5.17;;
3095;SDS011;1558;42.700;23.360;2022-09-13T01:48:49;5.73;;;5.00;;
3095;SDS011;1558;42.700;23.360;2022-09-13T01:51:24;6.87;;;5.37;;
3095;SDS011;1558;42.700;23.360;2022-09-13T01:53:57;7.17;;;5.77;;
3095;SDS011;1558;42.700;23.360;2022-09-13T01:56:37;5.70;;;5.17;;
3095;SDS011;1558;42.700;23.360;2022-09-13T01:59:10;5.77;;;5.13;;
3095;SDS011;1558;42.700;23.360;2022-09-13T02:01:46;5.97;;;5.43;;
3095;SDS011;1558;42.700;23.360;2022-09-13T02:04:21;5.67;;;5.17;;
3095;SDS011;1558;42.700;23.360;2022-09-13T02:06:57;7.13;;;5.80;;
3095;SDS011;1558;42.700;23.360;2022-09-13T02:09:30;6.23;;;5.10;;
3095;SDS011;1558;42.700;23.360;2022-09-13T02:12:02;7.23;;;5.20;;
3095;SDS011;1558;42.700;23.360;2022-09-13T02:14:38;10.03;;;5.67;;
3095;SDS011;1558;42.700;23.360;2022-09-13T02:17:11;5.67;;;5.03;;
3095;SDS011;1558;42.700;23.360;2022-09-13T02:19:46;5.47;;;4.97;;
3095;SDS011;1558;42.700;23.360;2022-09-13T02:22:19;6.13;;;5.53;;
3095;SDS011;1558;42.700;23.360;2022-09-13T02:24:53;5.67;;;5.10;;
3095;SDS011;1558;42.700;23.360;2022-09-13T02:27:25;5.70;;;5.10;;
3095;SDS011;1558;42.700;23.360;2022-09-13T02:30:00;5.57;;;5.07;;
3095;SDS011;1558;42.700;23.360;2022-09-13T02:32:32;6.23;;;5.13;;
3095;SDS011;1558;42.700;23.360;2022-09-13T02:35:06;5.60;;;5.10;;
3095;SDS011;1558;42.700;23.360;2022-09-13T02:37:39;6.57;;;5.67;;
3095;SDS011;1558;42.700;23.360;2022-09-13T02:40:11;5.23;;;4.83;;
3095;SDS011;1558;42.700;23.360;2022-09-13T02:42:49;5.43;;;5.03;;
3095;SDS011;1558;42.700;23.360;2022-09-13T02:45:24;7.17;;;5.30;;
3095;SDS011;1558;42.700;23.360;2022-09-13T02:47:59;6.40;;;5.87;;
3095;SDS011;1558;42.700;23.360;2022-09-13T02:50:35;6.37;;;5.57;;
3095;SDS011;1558;42.700;23.360;2022-09-13T02:53:13;6.73;;;5.53;;
3095;SDS011;1558;42.700;23.360;2022-09-13T02:55:50;6.60;;;6.00;;
3095;SDS011;1558;42.700;23.360;2022-09-13T02:58:27;6.57;;;5.97;;
3095;SDS011;1558;42.700;23.360;2022-09-13T03:01:02;6.17;;;5.50;;
3095;SDS011;1558;42.700;23.360;2022-09-13T03:03:32;6.00;;;5.47;;
3095;SDS011;1558;42.700;23.360;2022-09-13T03:05:59;6.13;;;5.53;;
3095;SDS011;1558;42.700;23.360;2022-09-13T03:08:28;6.73;;;5.73;;
3095;SDS011;1558;42.700;23.360;2022-09-13T03:10:59;6.33;;;5.73;;
3095;SDS011;1558;42.700;23.360;2022-09-13T03:13:35;6.57;;;5.63;;
3095;SDS011;1558;42.700;23.360;2022-09-13T03:16:16;5.90;;;5.40;;
3095;SDS011;1558;42.700;23.360;2022-09-13T03:19:00;6.50;;;6.00;;
3095;SDS011;1558;42.700;23.360;2022-09-13T03:21:50;6.77;;;5.80;;
3095;SDS011;1558;42.700;23.360;2022-09-13T03:24:29;7.47;;;5.70;;
3095;SDS011;1558;42.700;23.360;2022-09-13T03:27:10;6.20;;;5.60;;
3095;SDS011;1558;42.700;23.360;2022-09-13T03:29:48;6.03;;;5.53;;
3095;SDS011;1558;42.700;23.360;2022-09-13T03:32:23;6.53;;;5.80;;
3095;SDS011;1558;42.700;23.360;2022-09-13T03:35:03;7.07;;;5.60;;
3095;SDS011;1558;42.700;23.360;2022-09-13T03:37:41;6.53;;;5.90;;
3095;SDS011;1558;42.700;23.360;2022-09-13T03:40:20;6.33;;;5.70;;
3095;SDS011;1558;42.700;23.360;2022-09-13T03:42:54;8.77;;;5.70;;
3095;SDS011;1558;42.700;23.360;2022-09-13T03:45:29;6.90;;;6.30;;
3095;SDS011;1558;42.700;23.360;2022-09-13T03:48:02;7.33;;;5.83;;
3095;SDS011;1558;42.700;23.360;2022-09-13T03:50:33;7.40;;;6.70;;
3095;SDS011;1558;42.700;23.360;2022-09-13T03:53:03;9.57;;;7.60;;
3095;SDS011;1558;42.700;23.360;2022-09-13T03:55:37;10.40;;;7.50;;
3095;SDS011;1558;42.700;23.360;2022-09-13T03:58:08;8.23;;;7.43;;
3095;SDS011;1558;42.700;23.360;2022-09-13T04:00:38;9.87;;;8.13;;
3095;SDS011;1558;42.700;23.360;2022-09-13T04:03:06;11.60;;;8.40;;
3095;SDS011;1558;42.700;23.360;2022-09-13T04:05:36;12.23;;;8.13;;
3095;SDS011;1558;42.700;23.360;2022-09-13T04:08:04;10.27;;;8.03;;
3095;SDS011;1558;42.700;23.360;2022-09-13T04:10:34;8.33;;;7.50;;
3095;SDS011;1558;42.700;23.360;2022-09-13T04:13:02;10.23;;;8.00;;
3095;SDS011;1558;42.700;23.360;2022-09-13T04:15:31;9.30;;;8.13;;
3095;SDS011;1558;42.700;23.360;2022-09-13T04:17:59;9.30;;;8.40;;
3095;SDS011;1558;42.700;23.360;2022-09-13T04:20:27;10.07;;;7.97;;
3095;SDS011;1558;42.700;23.360;2022-09-13T04:22:56;13.03;;;8.60;;
3095;SDS011;1558;42.700;23.360;2022-09-13T04:25:24;10.57;;;9.47;;
3095;SDS011;1558;42.700;23.360;2022-09-13T04:27:52;10.23;;;9.17;;
3095;SDS011;1558;42.700;23.360;2022-09-13T04:30:21;9.93;;;8.87;;
3095;SDS011;1558;42.700;23.360;2022-09-13T04:32:49;10.90;;;8.93;;
3095;SDS011;1558;42.700;23.360;2022-09-13T04:35:17;10.43;;;9.37;;
3095;SDS011;1558;42.700;23.360;2022-09-13T04:37:45;12.97;;;9.70;;
3095;SDS011;1558;42.700;23.360;2022-09-13T04:40:14;14.73;;;10.43;;
3095;SDS011;1558;42.700;23.360;2022-09-13T04:42:43;14.17;;;10.27;;
3095;SDS011;1558;42.700;23.360;2022-09-13T04:45:11;17.83;;;9.10;;
3095;SDS011;1558;42.700;23.360;2022-09-13T04:47:39;12.03;;;8.43;;
3095;SDS011;1558;42.700;23.360;2022-09-13T04:50:07;13.80;;;8.20;;
3095;SDS011;1558;42.700;23.360;2022-09-13T04:52:35;9.97;;;8.13;;
3095;SDS011;1558;42.700;23.360;2022-09-13T04:55:03;10.70;;;7.07;;
3095;SDS011;1558;42.700;23.360;2022-09-13T04:57:34;10.10;;;7.33;;
3095;SDS011;1558;42.700;23.360;2022-09-13T05:00:02;10.67;;;6.60;;
3095;SDS011;1558;42.700;23.360;2022-09-13T05:02:31;7.13;;;6.50;;
3095;SDS011;1558;42.700;23.360;2022-09-13T05:04:59;7.97;;;6.77;;
3095;SDS011;1558;42.700;23.360;2022-09-13T05:07:27;11.93;;;8.63;;
3095;SDS011;1558;42.700;23.360;2022-09-13T05:09:55;7.37;;;6.07;;
3095;SDS011;1558;42.700;23.360;2022-09-13T05:12:23;14.23;;;6.00;;
3095;SDS011;1558;42.700;23.360;2022-09-13T05:14:52;7.50;;;5.97;;
3095;SDS011;1558;42.700;23.360;2022-09-13T05:17:20;8.77;;;5.93;;
3095;SDS011;1558;42.700;23.360;2022-09-13T05:19:48;8.95;;;6.18;;
3095;SDS011;1558;42.700;23.360;2022-09-13T05:22:16;8.23;;;6.28;;
3095;SDS011;1558;42.700;23.360;2022-09-13T05:24:43;7.97;;;5.30;;
3095;SDS011;1558;42.700;23.360;2022-09-13T05:27:11;9.80;;;5.95;;
3095;SDS011;1558;42.700;23.360;2022-09-13T05:29:39;6.55;;;5.07;;
3095;SDS011;1558;42.700;23.360;2022-09-13T05:32:08;13.57;;;6.07;;
3095;SDS011;1558;42.700;23.360;2022-09-13T05:34:36;6.47;;;5.20;;
3095;SDS011;1558;42.700;23.360;2022-09-13T05:37:04;6.40;;;4.65;;
3095;SDS011;1558;42.700;23.360;2022-09-13T05:39:32;5.68;;;4.38;;
3095;SDS011;1558;42.700;23.360;2022-09-13T05:42:21;5.05;;;4.50;;
3095;SDS011;1558;42.700;23.360;2022-09-13T05:44:49;5.70;;;4.50;;
3095;SDS011;1558;42.700;23.360;2022-09-13T05:47:18;4.53;;;4.10;;
3095;SDS011;1558;42.700;23.360;2022-09-13T05:49:46;5.07;;;4.60;;
3095;SDS011;1558;42.700;23.360;2022-09-13T05:52:34;6.78;;;4.20;;
3095;SDS011;1558;42.700;23.360;2022-09-13T05:55:02;8.82;;;8.00;;
3095;SDS011;1558;42.700;23.360;2022-09-13T05:57:30;5.05;;;4.10;;
3095;SDS011;1558;42.700;23.360;2022-09-13T05:59:58;5.65;;;4.32;;
3095;SDS011;1558;42.700;23.360;2022-09-13T06:02:28;5.13;;;4.28;;
3095;SDS011;1558;42.700;23.360;2022-09-13T06:04:57;6.78;;;4.38;;
3095;SDS011;1558;42.700;23.360;2022-09-13T06:07:25;6.88;;;4.60;;
3095;SDS011;1558;42.700;23.360;2022-09-13T06:09:53;5.38;;;4.15;;
3095;SDS011;1558;42.700;23.360;2022-09-13T06:12:21;6.10;;;5.53;;
3095;SDS011;1558;42.700;23.360;2022-09-13T06:14:49;5.63;;;4.07;;
3095;SDS011;1558;42.700;23.360;2022-09-13T06:17:17;4.95;;;4.45;;
3095;SDS011;1558;42.700;23.360;2022-09-13T06:19:47;7.90;;;4.20;;
3095;SDS011;1558;42.700;23.360;2022-09-13T06:22:15;7.78;;;4.60;;
3095;SDS011;1558;42.700;23.360;2022-09-13T06:24:42;6.70;;;4.50;;
3095;SDS011;1558;42.700;23.360;2022-09-13T06:27:10;5.30;;;4.80;;
3095;SDS011;1558;42.700;23.360;2022-09-13T06:29:38;13.63;;;12.38;;
3095;SDS011;1558;42.700;23.360;2022-09-13T06:32:06;6.10;;;4.53;;
3095;SDS011;1558;42.700;23.360;2022-09-13T06:34:34;7.30;;;4.30;;
3095;SDS011;1558;42.700;23.360;2022-09-13T06:37:03;12.63;;;4.50;;
3095;SDS011;1558;42.700;23.360;2022-09-13T06:39:31;5.00;;;4.60;;
3095;SDS011;1558;42.700;23.360;2022-09-13T06:41:59;8.32;;;4.50;;
3095;SDS011;1558;42.700;23.360;2022-09-13T06:44:27;6.30;;;4.40;;
3095;SDS011;1558;42.700;23.360;2022-09-13T06:46:56;5.50;;;4.50;;
3095;SDS011;1558;42.700;23.360;2022-09-13T06:49:24;5.75;;;5.10;;
3095;SDS011;1558;42.700;23.360;2022-09-13T06:51:54;7.20;;;4.57;;
3095;SDS011;1558;42.700;23.360;2022-09-13T06:54:23;15.13;;;5.25;;
3095;SDS011;1558;42.700;23.360;2022-09-13T06:56:51;5.10;;;4.35;;
3095;SDS011;1558;42.700;23.360;2022-09-13T06:59:19;6.85;;;4.40;;
3095;SDS011;1558;42.700;23.360;2022-09-13T07:01:47;4.60;;;4.20;;
3095;SDS011;1558;42.700;23.360;2022-09-13T07:04:16;6.00;;;3.97;;
3095;SDS011;1558;42.700;23.360;2022-09-13T07:06:45;8.18;;;4.15;;
3095;SDS011;1558;42.700;23.360;2022-09-13T07:09:15;4.90;;;4.25;;
3095;SDS011;1558;42.700;23.360;2022-09-13T07:11:46;5.72;;;4.03;;
3095;SDS011;1558;42.700;23.360;2022-09-13T07:14:16;5.20;;;4.25;;
3095;SDS011;1558;42.700;23.360;2022-09-13T07:16:45;4.57;;;4.20;;
3095;SDS011;1558;42.700;23.360;2022-09-13T07:19:14;5.43;;;4.47;;
3095;SDS011;1558;42.700;23.360;2022-09-13T07:21:43;6.47;;;4.00;;
3095;SDS011;1558;42.700;23.360;2022-09-13T07:24:11;6.63;;;4.40;;
3095;SDS011;1558;42.700;23.360;2022-09-13T07:26:39;4.32;;;3.90;;
3095;SDS011;1558;42.700;23.360;2022-09-13T07:29:10;5.40;;;4.15;;
3095;SDS011;1558;42.700;23.360;2022-09-13T07:31:40;9.15;;;4.50;;
3095;SDS011;1558;42.700;23.360;2022-09-13T07:34:11;4.78;;;4.28;;
3095;SDS011;1558;42.700;23.360;2022-09-13T07:36:40;6.90;;;4.70;;
3095;SDS011;1558;42.700;23.360;2022-09-13T07:39:09;16.38;;;14.95;;
3095;SDS011;1558;42.700;23.360;2022-09-13T07:41:42;10.32;;;4.88;;
3095;SDS011;1558;42.700;23.360;2022-09-13T07:44:13;6.05;;;4.28;;
3095;SDS011;1558;42.700;23.360;2022-09-13T07:46:41;12.20;;;4.35;;
3095;SDS011;1558;42.700;23.360;2022-09-13T07:49:10;4.38;;;4.07;;
3095;SDS011;1558;42.700;23.360;2022-09-13T07:51:40;4.38;;;3.97;;
3095;SDS011;1558;42.700;23.360;2022-09-13T07:54:10;7.32;;;3.53;;
3095;SDS011;1558;42.700;23.360;2022-09-13T07:56:39;4.07;;;3.75;;
3095;SDS011;1558;42.700;23.360;2022-09-13T07:59:10;5.95;;;3.90;;
3095;SDS011;1558;42.700;23.360;2022-09-13T08:01:41;6.18;;;4.25;;
3095;SDS011;1558;42.700;23.360;2022-09-13T08:04:10;3.75;;;3.45;;
3095;SDS011;1558;42.700;23.360;2022-09-13T08:06:40;4.28;;;3.72;;
3095;SDS011;1558;42.700;23.360;2022-09-13T08:09:09;7.90;;;3.67;;
3095;SDS011;1558;42.700;23.360;2022-09-13T08:11:38;5.55;;;3.42;;
3095;SDS011;1558;42.700;23.360;2022-09-13T08:14:08;3.50;;;3.20;;
3095;SDS011;1558;42.700;23.360;2022-09-13T08:16:38;3.85;;;3.20;;
3095;SDS011;1558;42.700;23.360;2022-09-13T08:19:09;6.47;;;3.70;;
3095;SDS011;1558;42.700;23.360;2022-09-13T08:21:39;5.55;;;4.05;;
3095;SDS011;1558;42.700;23.360;2022-09-13T08:24:12;4.28;;;3.88;;
3095;SDS011;1558;42.700;23.360;2022-09-13T08:26:41;3.72;;;3.28;;
3095;SDS011;1558;42.700;23.360;2022-09-13T08:29:09;3.67;;;3.30;;
3095;SDS011;1558;42.700;23.360;2022-09-13T08:31:39;4.15;;;3.72;;
3095;SDS011;1558;42.700;23.360;2022-09-13T08:34:10;4.57;;;3.55;;
3095;SDS011;1558;42.700;23.360;2022-09-13T08:36:40;3.90;;;3.60;;
3095;SDS011;1558;42.700;23.360;2022-09-13T08:39:08;3.63;;;3.13;;
3095;SDS011;1558;42.700;23.360;2022-09-13T08:41:47;4.85;;;4.32;;
3095;SDS011;1558;42.700;23.360;2022-09-13T08:44:23;5.80;;;5.20;;
3095;SDS011;1558;42.700;23.360;2022-09-13T08:46:56;7.50;;;4.40;;
3095;SDS011;1558;42.700;23.360;2022-09-13T08:49:33;5.47;;;3.60;;
3095;SDS011;1558;42.700;23.360;2022-09-13T08:52:05;4.03;;;3.63;;
3095;SDS011;1558;42.700;23.360;2022-09-13T08:54:47;4.10;;;3.65;;
3095;SDS011;1558;42.700;23.360;2022-09-13T08:57:24;4.90;;;3.20;;
3095;SDS011;1558;42.700;23.360;2022-09-13T08:59:59;4.72;;;3.20;;
3095;SDS011;1558;42.700;23.360;2022-09-13T09:02:43;3.67;;;2.88;;
3095;SDS011;1558;42.700;23.360;2022-09-13T09:05:23;6.60;;;3.42;;
3095;SDS011;1558;42.700;23.360;2022-09-13T09:07:55;4.82;;;3.22;;
3095;SDS011;1558;42.700;23.360;2022-09-13T09:10:26;3.40;;;2.88;;
3095;SDS011;1558;42.700;23.360;2022-09-13T09:12:57;10.68;;;3.83;;
3095;SDS011;1558;42.700;23.360;2022-09-13T09:15:29;3.25;;;2.90;;
3095;SDS011;1558;42.700;23.360;2022-09-13T09:18:02;3.33;;;3.13;;
3095;SDS011;1558;42.700;23.360;2022-09-13T09:20:38;3.08;;;2.80;;
3095;SDS011;1558;42.700;23.360;2022-09-13T09:23:11;3.20;;;3.00;;
3095;SDS011;1558;42.700;23.360;2022-09-13T09:25:47;6.75;;;2.90;;
3095;SDS011;1558;42.700;23.360;2022-09-13T09:28:18;3.35;;;3.05;;
3095;SDS011;1558;42.700;23.360;2022-09-13T09:30:52;3.13;;;2.63;;
3095;SDS011;1558;42.700;23.360;2022-09-13T09:33:32;3.50;;;2.85;;
3095;SDS011;1558;42.700;23.360;2022-09-13T09:36:13;2.85;;;2.40;;
3095;SDS011;1558;42.700;23.360;2022-09-13T09:38:47;3.22;;;3.03;;
3095;SDS011;1558;42.700;23.360;2022-09-13T09:41:20;4.53;;;3.33;;
3095;SDS011;1558;42.700;23.360;2022-09-13T09:43:55;2.92;;;2.72;;
3095;SDS011;1558;42.700;23.360;2022-09-13T09:46:31;3.92;;;2.88;;
3095;SDS011;1558;42.700;23.360;2022-09-13T09:49:04;7.25;;;3.97;;
3095;SDS011;1558;42.700;23.360;2022-09-13T09:52:01;4.15;;;3.20;;
3095;SDS011;1558;42.700;23.360;2022-09-13T09:54:32;4.93;;;3.15;;
3095;SDS011;1558;42.700;23.360;2022-09-13T09:57:03;3.22;;;3.03;;
3095;SDS011;1558;42.700;23.360;2022-09-13T09:59:33;3.15;;;2.95;;
3095;SDS011;1558;42.700;23.360;2022-09-13T10:02:12;4.05;;;3.75;;
3095;SDS011;1558;42.700;23.360;2022-09-13T10:04:52;3.67;;;3.30;;
3095;SDS011;1558;42.700;23.360;2022-09-13T10:07:27;5.68;;;3.42;;
3095;SDS011;1558;42.700;23.360;2022-09-13T10:09:59;3.47;;;3.03;;
3095;SDS011;1558;42.700;23.360;2022-09-13T10:12:31;3.22;;;2.97;;
3095;SDS011;1558;42.700;23.360;2022-09-13T10:15:05;4.00;;;3.30;;
3095;SDS011;1558;42.700;23.360;2022-09-13T10:17:44;3.55;;;3.00;;
3095;SDS011;1558;42.700;23.360;2022-09-13T10:20:28;4.50;;;3.20;;
3095;SDS011;1558;42.700;23.360;2022-09-13T10:25:54;5.65;;;3.00;;
3095;SDS011;1558;42.700;23.360;2022-09-13T10:28:26;4.03;;;3.60;;
3095;SDS011;1558;42.700;23.360;2022-09-13T10:30:56;3.42;;;3.13;;
3095;SDS011;1558;42.700;23.360;2022-09-13T10:33:29;5.20;;;3.65;;
3095;SDS011;1558;42.700;23.360;2022-09-13T10:36:00;6.60;;;4.07;;
3095;SDS011;1558;42.700;23.360;2022-09-13T10:38:34;4.07;;;3.30;;
3095;SDS011;1558;42.700;23.360;2022-09-13T10:41:19;3.53;;;3.28;;
3095;SDS011;1558;42.700;23.360;2022-09-13T10:43:50;4.78;;;3.40;;
3095;SDS011;1558;42.700;23.360;2022-09-13T10:46:24;3.63;;;3.13;;
3095;SDS011;1558;42.700;23.360;2022-09-13T10:48:53;3.95;;;3.65;;
3095;SDS011;1558;42.700;23.360;2022-09-13T10:51:28;3.95;;;3.20;;
3095;SDS011;1558;42.700;23.360;2022-09-13T10:54:11;3.50;;;3.10;;
3095;SDS011;1558;42.700;23.360;2022-09-13T10:56:44;5.53;;;4.20;;
3095;SDS011;1558;42.700;23.360;2022-09-13T10:59:18;3.50;;;3.13;;
3095;SDS011;1558;42.700;23.360;2022-09-13T11:04:55;4.18;;;2.83;;
3095;SDS011;1558;42.700;23.360;2022-09-13T11:07:39;2.97;;;2.78;;
3095;SDS011;1558;42.700;23.360;2022-09-13T11:10:30;3.50;;;3.30;;
3095;SDS011;1558;42.700;23.360;2022-09-13T11:13:04;5.22;;;3.78;;
3095;SDS011;1558;42.700;23.360;2022-09-13T11:15:44;3.85;;;3.55;;
3095;SDS011;1558;42.700;23.360;2022-09-13T11:18:33;3.10;;;2.90;;
3095;SDS011;1558;42.700;23.360;2022-09-13T11:21:17;7.45;;;3.35;;
3095;SDS011;1558;42.700;23.360;2022-09-13T11:24:02;3.28;;;3.05;;
3095;SDS011;1558;42.700;23.360;2022-09-13T11:26:47;4.38;;;3.40;;
3095;SDS011;1558;42.700;23.360;2022-09-13T11:29:40;3.47;;;3.10;;
3095;SDS011;1558;42.700;23.360;2022-09-13T11:32:26;3.08;;;2.88;;
3095;SDS011;1558;42.700;23.360;2022-09-13T11:35:11;3.00;;;2.80;;
3095;SDS011;1558;42.700;23.360;2022-09-13T11:37:53;3.00;;;2.80;;
3095;SDS011;1558;42.700;23.360;2022-09-13T11:40:33;5.68;;;3.00;;
3095;SDS011;1558;42.700;23.360;2022-09-13T11:43:17;2.97;;;2.78;;
3095;SDS011;1558;42.700;23.360;2022-09-13T11:46:01;2.85;;;2.67;;
3095;SDS011;1558;42.700;23.360;2022-09-13T11:48:50;3.70;;;3.15;;
3095;SDS011;1558;42.700;23.360;2022-09-13T11:51:33;5.00;;;3.00;;
3095;SDS011;1558;42.700;23.360;2022-09-13T11:54:17;5.38;;;2.78;;
3095;SDS011;1558;42.700;23.360;2022-09-13T11:56:54;3.75;;;3.45;;
3095;SDS011;1558;42.700;23.360;2022-09-13T11:59:30;2.90;;;2.70;;
3095;SDS011;1558;42.700;23.360;2022-09-13T12:02:10;3.50;;;2.72;;
3095;SDS011;1558;42.700;23.360;2022-09-13T12:04:47;5.60;;;3.22;;
3095;SDS011;1558;42.700;23.360;2022-09-13T12:07:39;3.67;;;2.63;;
3095;SDS011;1558;42.700;23.360;2022-09-13T12:10:13;4.80;;;2.88;;
3095;SDS011;1558;42.700;23.360;2022-09-13T12:12:44;3.03;;;2.78;;
3095;SDS011;1558;42.700;23.360;2022-09-13T12:15:18;2.80;;;2.60;;
3095;SDS011;1558;42.700;23.360;2022-09-13T12:17:53;3.30;;;2.70;;
3095;SDS011;1558;42.700;23.360;2022-09-13T12:20:29;3.80;;;3.13;;
3095;SDS011;1558;42.700;23.360;2022-09-13T12:23:01;3.53;;;3.00;;
3095;SDS011;1558;42.700;23.360;2022-09-13T12:25:33;4.13;;;2.83;;
3095;SDS011;1558;42.700;23.360;2022-09-13T12:28:11;3.03;;;2.75;;
3095;SDS011;1558;42.700;23.360;2022-09-13T12:30:46;3.35;;;3.08;;
3095;SDS011;1558;42.700;23.360;2022-09-13T12:33:19;3.47;;;2.70;;
3095;SDS011;1558;42.700;23.360;2022-09-13T12:35:52;4.20;;;2.90;;
3095;SDS011;1558;42.700;23.360;2022-09-13T12:38:53;2.78;;;2.58;;
3095;SDS011;1558;42.700;23.360;2022-09-13T12:41:51;2.78;;;2.58;;
3095;SDS011;1558;42.700;23.360;2022-09-13T12:44:35;4.18;;;2.63;;
3095;SDS011;1558;42.700;23.360;2022-09-13T12:47:18;3.83;;;2.80;;
3095;SDS011;1558;42.700;23.360;2022-09-13T12:50:09;2.85;;;2.53;;
3095;SDS011;1558;42.700;23.360;2022-09-13T12:53:16;5.60;;;2.90;;
3095;SDS011;1558;42.700;23.360;2022-09-13T12:59:15;3.42;;;3.13;;
3095;SDS011;1558;42.700;23.360;2022-09-13T13:02:01;3.58;;;2.60;;
3095;SDS011;1558;42.700;23.360;2022-09-13T13:04:32;3.97;;;2.70;;
3095;SDS011;1558;42.700;23.360;2022-09-13T13:07:04;3.00;;;2.50;;
3095;SDS011;1558;42.700;23.360;2022-09-13T13:09:35;2.88;;;2.67;;
3095;SDS011;1558;42.700;23.360;2022-09-13T13:12:07;3.33;;;2.50;;
3095;SDS011;1558;42.700;23.360;2022-09-13T13:14:46;6.70;;;2.95;;
3095;SDS011;1558;42.700;23.360;2022-09-13T13:17:35;3.88;;;2.90;;
3095;SDS011;1558;42.700;23.360;2022-09-13T13:23:15;5.75;;;3.00;;
3095;SDS011;1558;42.700;23.360;2022-09-13T13:25:56;3.47;;;2.95;;
3095;SDS011;1558;42.700;23.360;2022-09-13T13:31:39;6.88;;;3.30;;
3095;SDS011;1558;42.700;23.360;2022-09-13T13:34:25;3.55;;;2.90;;
3095;SDS011;1558;42.700;23.360;2022-09-13T13:36:58;11.68;;;5.70;;
3095;SDS011;1558;42.700;23.360;2022-09-13T13:39:32;9.68;;;6.13;;
3095;SDS011;1558;42.700;23.360;2022-09-13T13:42:09;6.13;;;4.22;;
3095;SDS011;1558;42.700;23.360;2022-09-13T13:53:57;6.30;;;3.63;;
3095;SDS011;1558;42.700;23.360;2022-09-13T13:56:30;3.63;;;3.33;;
3095;SDS011;1558;42.700;23.360;2022-09-13T13:59:06;6.00;;;3.65;;
3095;SDS011;1558;42.700;23.360;2022-09-13T14:01:41;3.60;;;3.30;;
3095;SDS011;1558;42.700;23.360;2022-09-13T14:07:15;7.70;;;3.97;;
3095;SDS011;1558;42.700;23.360;2022-09-13T14:10:07;7.57;;;3.30;;
3095;SDS011;1558;42.700;23.360;2022-09-13T14:12:45;3.38;;;3.10;;
3095;SDS011;1558;42.700;23.360;2022-09-13T14:15:28;3.97;;;3.00;;
3095;SDS011;1558;42.700;23.360;2022-09-13T14:18:17;3.97;;;3.40;;
3095;SDS011;1558;42.700;23.360;2022-09-13T14:21:08;6.38;;;3.90;;
3095;SDS011;1558;42.700;23.360;2022-09-13T14:23:46;5.28;;;3.15;;
3095;SDS011;1558;42.700;23.360;2022-09-13T14:26:16;8.23;;;3.25;;
3095;SDS011;1558;42.700;23.360;2022-09-13T14:28:44;3.35;;;2.92;;
3095;SDS011;1558;42.700;23.360;2022-09-13T14:31:15;7.65;;;3.08;;
3095;SDS011;1558;42.700;23.360;2022-09-13T14:33:45;4.88;;;3.20;;
3095;SDS011;1558;42.700;23.360;2022-09-13T14:36:15;4.32;;;3.05;;
3095;SDS011;1558;42.700;23.360;2022-09-13T14:38:46;5.30;;;3.47;;
3095;SDS011;1558;42.700;23.360;2022-09-13T14:41:28;4.47;;;3.40;;
3095;SDS011;1558;42.700;23.360;2022-09-13T14:44:12;3.33;;;3.13;;
3095;SDS011;1558;42.700;23.360;2022-09-13T14:46:51;4.78;;;3.63;;
3095;SDS011;1558;42.700;23.360;2022-09-13T14:49:25;3.85;;;3.40;;
3095;SDS011;1558;42.700;23.360;2022-09-13T14:51:58;5.13;;;4.40;;
3095;SDS011;1558;42.700;23.360;2022-09-13T14:54:32;3.78;;;2.95;;
3095;SDS011;1558;42.700;23.360;2022-09-13T14:57:07;4.78;;;3.60;;
3095;SDS011;1558;42.700;23.360;2022-09-13T14:59:42;3.17;;;2.88;;
3095;SDS011;1558;42.700;23.360;2022-09-13T15:02:15;3.95;;;3.38;;
3095;SDS011;1558;42.700;23.360;2022-09-13T15:04:48;11.18;;;4.07;;
3095;SDS011;1558;42.700;23.360;2022-09-13T15:07:19;5.95;;;3.60;;
3095;SDS011;1558;42.700;23.360;2022-09-13T15:09:54;4.53;;;3.90;;
3095;SDS011;1558;42.700;23.360;2022-09-13T15:12:26;4.30;;;3.50;;
3095;SDS011;1558;42.700;23.360;2022-09-13T15:17:50;3.90;;;3.60;;
3095;SDS011;1558;42.700;23.360;2022-09-13T15:20:22;3.78;;;3.53;;
3095;SDS011;1558;42.700;23.360;2022-09-13T15:22:51;4.53;;;3.30;;
3095;SDS011;1558;42.700;23.360;2022-09-13T15:25:21;4.57;;;3.63;;
3095;SDS011;1558;42.700;23.360;2022-09-13T15:27:53;4.13;;;2.93;;
3095;SDS011;1558;42.700;23.360;2022-09-13T15:30:24;3.80;;;3.50;;
3095;SDS011;1558;42.700;23.360;2022-09-13T15:33:03;5.77;;;5.27;;
3095;SDS011;1558;42.700;23.360;2022-09-13T15:35:34;4.40;;;3.53;;
3095;SDS011;1558;42.700;23.360;2022-09-13T15:38:14;4.80;;;3.53;;
3095;SDS011;1558;42.700;23.360;2022-09-13T15:40:46;3.57;;;3.23;;
3095;SDS011;1558;42.700;23.360;2022-09-13T15:43:25;4.87;;;3.10;;
3095;SDS011;1558;42.700;23.360;2022-09-13T15:45:54;3.70;;;3.30;;
3095;SDS011;1558;42.700;23.360;2022-09-13T15:48:24;3.70;;;3.33;;
3095;SDS011;1558;42.700;23.360;2022-09-13T15:51:03;3.30;;;3.07;;
3095;SDS011;1558;42.700;23.360;2022-09-13T15:53:33;4.00;;;3.10;;
3095;SDS011;1558;42.700;23.360;2022-09-13T15:56:02;3.73;;;3.40;;
3095;SDS011;1558;42.700;23.360;2022-09-13T15:58:32;4.03;;;3.23;;
3095;SDS011;1558;42.700;23.360;2022-09-13T16:01:01;4.00;;;3.70;;
3095;SDS011;1558;42.700;23.360;2022-09-13T16:03:29;5.23;;;3.70;;
3095;SDS011;1558;42.700;23.360;2022-09-13T16:05:57;4.40;;;3.90;;
3095;SDS011;1558;42.700;23.360;2022-09-13T16:08:25;4.47;;;3.73;;
3095;SDS011;1558;42.700;23.360;2022-09-13T16:10:53;4.10;;;3.70;;
3095;SDS011;1558;42.700;23.360;2022-09-13T16:13:21;3.93;;;3.50;;
3095;SDS011;1558;42.700;23.360;2022-09-13T16:15:50;3.60;;;3.30;;
3095;SDS011;1558;42.700;23.360;2022-09-13T16:18:23;6.20;;;3.90;;